Terminal Aerodrome Forecast
Issued by NWS Houston/Galveston TX

Home | Current Version | Previous Version | Text Only | Print | Product List | Glossary On
Versions: 1 2 3 4 5 6 7 8 9 10 11 12 13 14 15 16 17 18 19 20 21 22 23 24 25 26 27 28 29 30 31 32 33 34 35
000
FTUS44 KHGX 220221 AAB
TAFHOU
TAF AMD
KHOU 220221Z 2202/2224 16009KT P6SM VCSH SCT008 OVC015
      TEMPO 2202/2204 OVC007
     FM220400 18008KT 6SM BR VCSH SCT008 OVC015
     FM220900 24007KT 6SM BR VCTS BKN015 BKN025CB
     FM221100 28008KT P6SM SCT020 BKN035
     FM221600 32015G23KT P6SM SCT250=

USA.gov is the U.S. government's official web portal to all federal, state and local government web resources and services.